sensor_id;sensor_type;location;lat;lon;timestamp;P1;durP1;ratioP1;P2;durP2;ratioP2
67941;SDS011;54731;42.600;23.476;2024-03-08T00:01:37;22.57;;;10.73;;
67941;SDS011;54731;42.600;23.476;2024-03-08T00:04:03;22.37;;;10.97;;
67941;SDS011;54731;42.600;23.476;2024-03-08T00:06:28;21.90;;;10.75;;
67941;SDS011;54731;42.600;23.476;2024-03-08T00:08:54;20.83;;;10.93;;
67941;SDS011;54731;42.600;23.476;2024-03-08T00:11:19;27.17;;;11.53;;
67941;SDS011;54731;42.600;23.476;2024-03-08T00:13:44;29.67;;;13.70;;
67941;SDS011;54731;42.600;23.476;2024-03-08T00:16:09;23.57;;;11.67;;
67941;SDS011;54731;42.600;23.476;2024-03-08T00:18:35;23.37;;;11.67;;
67941;SDS011;54731;42.600;23.476;2024-03-08T00:21:00;25.97;;;13.50;;
67941;SDS011;54731;42.600;23.476;2024-03-08T00:23:25;21.73;;;11.00;;
67941;SDS011;54731;42.600;23.476;2024-03-08T00:25:51;21.63;;;10.47;;
67941;SDS011;54731;42.600;23.476;2024-03-08T00:28:16;23.15;;;10.95;;
67941;SDS011;54731;42.600;23.476;2024-03-08T00:30:41;20.52;;;10.30;;
67941;SDS011;54731;42.600;23.476;2024-03-08T00:33:07;20.90;;;10.70;;
67941;SDS011;54731;42.600;23.476;2024-03-08T00:35:32;22.90;;;11.37;;
67941;SDS011;54731;42.600;23.476;2024-03-08T00:37:57;21.83;;;10.37;;
67941;SDS011;54731;42.600;23.476;2024-03-08T00:40:23;21.70;;;10.57;;
67941;SDS011;54731;42.600;23.476;2024-03-08T00:42:48;20.70;;;11.10;;
67941;SDS011;54731;42.600;23.476;2024-03-08T00:45:13;20.20;;;11.23;;
67941;SDS011;54731;42.600;23.476;2024-03-08T00:47:38;20.63;;;10.07;;
67941;SDS011;54731;42.600;23.476;2024-03-08T00:50:04;19.00;;;9.63;;
67941;SDS011;54731;42.600;23.476;2024-03-08T00:52:30;19.92;;;9.63;;
67941;SDS011;54731;42.600;23.476;2024-03-08T00:54:55;18.27;;;10.23;;
67941;SDS011;54731;42.600;23.476;2024-03-08T00:57:21;21.30;;;11.13;;
67941;SDS011;54731;42.600;23.476;2024-03-08T00:59:46;20.97;;;10.47;;
67941;SDS011;54731;42.600;23.476;2024-03-08T01:02:11;23.07;;;11.37;;
67941;SDS011;54731;42.600;23.476;2024-03-08T01:04:36;20.30;;;11.47;;
67941;SDS011;54731;42.600;23.476;2024-03-08T01:07:02;23.83;;;11.33;;
67941;SDS011;54731;42.600;23.476;2024-03-08T01:09:27;26.67;;;12.97;;
67941;SDS011;54731;42.600;23.476;2024-03-08T01:11:53;23.88;;;11.43;;
67941;SDS011;54731;42.600;23.476;2024-03-08T01:14:19;23.55;;;11.90;;
67941;SDS011;54731;42.600;23.476;2024-03-08T01:16:49;26.63;;;11.65;;
67941;SDS011;54731;42.600;23.476;2024-03-08T01:19:14;26.60;;;12.75;;
67941;SDS011;54731;42.600;23.476;2024-03-08T01:21:40;23.40;;;10.50;;
67941;SDS011;54731;42.600;23.476;2024-03-08T01:24:06;27.55;;;14.02;;
67941;SDS011;54731;42.600;23.476;2024-03-08T01:26:31;28.43;;;14.73;;
67941;SDS011;54731;42.600;23.476;2024-03-08T01:28:57;22.23;;;10.80;;
67941;SDS011;54731;42.600;23.476;2024-03-08T01:31:22;20.53;;;10.70;;
67941;SDS011;54731;42.600;23.476;2024-03-08T01:33:47;22.00;;;9.70;;
67941;SDS011;54731;42.600;23.476;2024-03-08T01:36:13;17.77;;;9.38;;
67941;SDS011;54731;42.600;23.476;2024-03-08T01:38:38;20.73;;;10.02;;
67941;SDS011;54731;42.600;23.476;2024-03-08T01:41:03;18.97;;;9.77;;
67941;SDS011;54731;42.600;23.476;2024-03-08T01:43:29;21.10;;;9.83;;
67941;SDS011;54731;42.600;23.476;2024-03-08T01:45:54;20.57;;;9.40;;
67941;SDS011;54731;42.600;23.476;2024-03-08T01:48:22;22.40;;;10.63;;
67941;SDS011;54731;42.600;23.476;2024-03-08T01:50:47;23.00;;;9.93;;
67941;SDS011;54731;42.600;23.476;2024-03-08T01:53:13;21.10;;;10.17;;
67941;SDS011;54731;42.600;23.476;2024-03-08T01:55:38;19.05;;;10.50;;
67941;SDS011;54731;42.600;23.476;2024-03-08T01:58:07;20.70;;;10.10;;
67941;SDS011;54731;42.600;23.476;2024-03-08T02:00:35;20.35;;;10.52;;
67941;SDS011;54731;42.600;23.476;2024-03-08T02:03:01;20.90;;;10.07;;
67941;SDS011;54731;42.600;23.476;2024-03-08T02:05:27;22.10;;;10.40;;
67941;SDS011;54731;42.600;23.476;2024-03-08T02:07:52;25.13;;;11.40;;
67941;SDS011;54731;42.600;23.476;2024-03-08T02:10:18;170.63;;;11.50;;
67941;SDS011;54731;42.600;23.476;2024-03-08T02:12:44;111.38;;;8.50;;
67941;SDS011;54731;42.600;23.476;2024-03-08T02:15:11;15.97;;;5.60;;
67941;SDS011;54731;42.600;23.476;2024-03-08T02:17:36;15.43;;;6.50;;
67941;SDS011;54731;42.600;23.476;2024-03-08T02:20:03;15.60;;;6.15;;
67941;SDS011;54731;42.600;23.476;2024-03-08T02:22:28;11.80;;;5.70;;
67941;SDS011;54731;42.600;23.476;2024-03-08T02:24:55;9.52;;;4.30;;
67941;SDS011;54731;42.600;23.476;2024-03-08T02:27:24;10.93;;;4.97;;
67941;SDS011;54731;42.600;23.476;2024-03-08T02:29:50;10.55;;;4.72;;
67941;SDS011;54731;42.600;23.476;2024-03-08T02:32:17;9.23;;;4.80;;
67941;SDS011;54731;42.600;23.476;2024-03-08T02:34:42;8.90;;;5.37;;
67941;SDS011;54731;42.600;23.476;2024-03-08T02:37:08;8.57;;;4.37;;
67941;SDS011;54731;42.600;23.476;2024-03-08T02:39:33;7.87;;;4.43;;
67941;SDS011;54731;42.600;23.476;2024-03-08T02:41:58;8.57;;;4.57;;
67941;SDS011;54731;42.600;23.476;2024-03-08T02:44:24;9.10;;;5.00;;
67941;SDS011;54731;42.600;23.476;2024-03-08T02:46:49;8.27;;;4.83;;
67941;SDS011;54731;42.600;23.476;2024-03-08T02:49:14;14.07;;;6.63;;
67941;SDS011;54731;42.600;23.476;2024-03-08T02:51:40;11.60;;;6.77;;
67941;SDS011;54731;42.600;23.476;2024-03-08T02:54:05;11.07;;;6.30;;
67941;SDS011;54731;42.600;23.476;2024-03-08T02:56:30;11.00;;;5.72;;
67941;SDS011;54731;42.600;23.476;2024-03-08T02:58:55;9.90;;;5.23;;
67941;SDS011;54731;42.600;23.476;2024-03-08T03:01:21;9.83;;;5.80;;
67941;SDS011;54731;42.600;23.476;2024-03-08T03:03:46;10.63;;;5.87;;
67941;SDS011;54731;42.600;23.476;2024-03-08T03:06:11;10.40;;;6.13;;
67941;SDS011;54731;42.600;23.476;2024-03-08T03:08:37;9.93;;;6.00;;
67941;SDS011;54731;42.600;23.476;2024-03-08T03:11:02;12.07;;;6.90;;
67941;SDS011;54731;42.600;23.476;2024-03-08T03:13:27;9.80;;;5.73;;
67941;SDS011;54731;42.600;23.476;2024-03-08T03:15:52;8.20;;;4.17;;
67941;SDS011;54731;42.600;23.476;2024-03-08T03:18:18;7.05;;;4.05;;
67941;SDS011;54731;42.600;23.476;2024-03-08T03:20:43;5.37;;;2.83;;
67941;SDS011;54731;42.600;23.476;2024-03-08T03:23:09;5.63;;;2.83;;
67941;SDS011;54731;42.600;23.476;2024-03-08T03:25:34;3.80;;;2.17;;
67941;SDS011;54731;42.600;23.476;2024-03-08T03:28:00;4.15;;;2.47;;
67941;SDS011;54731;42.600;23.476;2024-03-08T03:30:27;3.65;;;2.13;;
67941;SDS011;54731;42.600;23.476;2024-03-08T03:32:52;4.27;;;2.30;;
67941;SDS011;54731;42.600;23.476;2024-03-08T03:35:18;4.55;;;2.60;;
67941;SDS011;54731;42.600;23.476;2024-03-08T03:37:44;4.93;;;2.40;;
67941;SDS011;54731;42.600;23.476;2024-03-08T03:40:09;5.10;;;3.38;;
67941;SDS011;54731;42.600;23.476;2024-03-08T03:42:35;5.90;;;3.17;;
67941;SDS011;54731;42.600;23.476;2024-03-08T03:45:00;3.30;;;2.30;;
67941;SDS011;54731;42.600;23.476;2024-03-08T03:47:25;3.93;;;2.40;;
67941;SDS011;54731;42.600;23.476;2024-03-08T03:49:51;3.13;;;1.97;;
67941;SDS011;54731;42.600;23.476;2024-03-08T03:52:16;3.60;;;1.90;;
67941;SDS011;54731;42.600;23.476;2024-03-08T03:54:41;4.83;;;2.30;;
67941;SDS011;54731;42.600;23.476;2024-03-08T03:57:07;4.47;;;2.40;;
67941;SDS011;54731;42.600;23.476;2024-03-08T03:59:32;3.10;;;2.17;;
67941;SDS011;54731;42.600;23.476;2024-03-08T04:01:57;5.23;;;2.63;;
67941;SDS011;54731;42.600;23.476;2024-03-08T04:04:22;4.73;;;2.73;;
67941;SDS011;54731;42.600;23.476;2024-03-08T04:06:48;4.63;;;3.03;;
67941;SDS011;54731;42.600;23.476;2024-03-08T04:09:13;6.40;;;4.43;;
67941;SDS011;54731;42.600;23.476;2024-03-08T04:11:39;6.83;;;3.50;;
67941;SDS011;54731;42.600;23.476;2024-03-08T04:14:04;6.10;;;3.35;;
67941;SDS011;54731;42.600;23.476;2024-03-08T04:16:29;5.70;;;3.30;;
67941;SDS011;54731;42.600;23.476;2024-03-08T04:18:55;5.57;;;3.47;;
67941;SDS011;54731;42.600;23.476;2024-03-08T04:21:20;7.27;;;4.33;;
67941;SDS011;54731;42.600;23.476;2024-03-08T04:23:45;6.33;;;3.67;;
67941;SDS011;54731;42.600;23.476;2024-03-08T04:26:11;4.40;;;2.93;;
67941;SDS011;54731;42.600;23.476;2024-03-08T04:28:36;6.82;;;3.22;;
67941;SDS011;54731;42.600;23.476;2024-03-08T04:31:02;5.63;;;3.10;;
67941;SDS011;54731;42.600;23.476;2024-03-08T04:33:28;7.07;;;4.03;;
67941;SDS011;54731;42.600;23.476;2024-03-08T04:35:53;7.43;;;3.93;;
67941;SDS011;54731;42.600;23.476;2024-03-08T04:38:18;6.53;;;2.57;;
67941;SDS011;54731;42.600;23.476;2024-03-08T04:40:43;4.43;;;1.93;;
67941;SDS011;54731;42.600;23.476;2024-03-08T04:43:09;2.60;;;1.53;;
67941;SDS011;54731;42.600;23.476;2024-03-08T04:45:34;3.93;;;1.90;;
67941;SDS011;54731;42.600;23.476;2024-03-08T04:47:59;4.13;;;2.10;;
67941;SDS011;54731;42.600;23.476;2024-03-08T04:50:25;4.38;;;2.10;;
67941;SDS011;54731;42.600;23.476;2024-03-08T04:52:50;6.80;;;3.00;;
67941;SDS011;54731;42.600;23.476;2024-03-08T04:55:15;5.90;;;2.70;;
67941;SDS011;54731;42.600;23.476;2024-03-08T04:57:41;5.77;;;2.67;;
67941;SDS011;54731;42.600;23.476;2024-03-08T05:00:06;5.70;;;2.40;;
67941;SDS011;54731;42.600;23.476;2024-03-08T05:02:32;3.00;;;1.53;;
67941;SDS011;54731;42.600;23.476;2024-03-08T05:04:57;3.72;;;1.98;;
67941;SDS011;54731;42.600;23.476;2024-03-08T05:07:22;4.17;;;1.63;;
67941;SDS011;54731;42.600;23.476;2024-03-08T05:09:48;12.07;;;5.87;;
67941;SDS011;54731;42.600;23.476;2024-03-08T05:12:13;8.77;;;4.60;;
67941;SDS011;54731;42.600;23.476;2024-03-08T05:14:38;7.83;;;4.07;;
67941;SDS011;54731;42.600;23.476;2024-03-08T05:17:03;7.37;;;3.57;;
67941;SDS011;54731;42.600;23.476;2024-03-08T05:19:29;10.27;;;4.27;;
67941;SDS011;54731;42.600;23.476;2024-03-08T05:21:54;12.70;;;6.90;;
67941;SDS011;54731;42.600;23.476;2024-03-08T05:24:19;12.20;;;6.13;;
67941;SDS011;54731;42.600;23.476;2024-03-08T05:26:45;10.02;;;5.07;;
67941;SDS011;54731;42.600;23.476;2024-03-08T05:29:11;10.43;;;5.63;;
67941;SDS011;54731;42.600;23.476;2024-03-08T05:31:47;12.20;;;5.60;;
67941;SDS011;54731;42.600;23.476;2024-03-08T05:34:13;9.63;;;5.30;;
67941;SDS011;54731;42.600;23.476;2024-03-08T05:36:39;6.35;;;3.97;;
67941;SDS011;54731;42.600;23.476;2024-03-08T05:39:04;7.23;;;3.97;;
67941;SDS011;54731;42.600;23.476;2024-03-08T05:41:29;9.60;;;3.93;;
67941;SDS011;54731;42.600;23.476;2024-03-08T05:43:55;7.33;;;3.80;;
67941;SDS011;54731;42.600;23.476;2024-03-08T05:46:20;8.37;;;4.50;;
67941;SDS011;54731;42.600;23.476;2024-03-08T05:48:45;9.13;;;5.75;;
67941;SDS011;54731;42.600;23.476;2024-03-08T05:51:11;9.87;;;4.70;;
67941;SDS011;54731;42.600;23.476;2024-03-08T05:53:36;9.83;;;5.40;;
67941;SDS011;54731;42.600;23.476;2024-03-08T05:56:01;11.90;;;5.37;;
67941;SDS011;54731;42.600;23.476;2024-03-08T05:58:27;9.93;;;5.33;;
67941;SDS011;54731;42.600;23.476;2024-03-08T06:00:52;9.27;;;5.60;;
67941;SDS011;54731;42.600;23.476;2024-03-08T06:03:17;10.47;;;5.40;;
67941;SDS011;54731;42.600;23.476;2024-03-08T06:05:43;9.25;;;5.45;;
67941;SDS011;54731;42.600;23.476;2024-03-08T06:08:08;7.93;;;4.23;;
67941;SDS011;54731;42.600;23.476;2024-03-08T06:10:33;8.93;;;4.73;;
67941;SDS011;54731;42.600;23.476;2024-03-08T06:12:59;7.90;;;4.97;;
67941;SDS011;54731;42.600;23.476;2024-03-08T06:15:24;12.17;;;6.77;;
67941;SDS011;54731;42.600;23.476;2024-03-08T06:17:49;11.90;;;7.37;;
67941;SDS011;54731;42.600;23.476;2024-03-08T06:20:15;32.20;;;15.23;;
67941;SDS011;54731;42.600;23.476;2024-03-08T06:22:40;18.80;;;10.02;;
67941;SDS011;54731;42.600;23.476;2024-03-08T06:25:06;19.37;;;7.43;;
67941;SDS011;54731;42.600;23.476;2024-03-08T06:27:32;14.00;;;7.38;;
67941;SDS011;54731;42.600;23.476;2024-03-08T06:29:58;17.63;;;11.07;;
67941;SDS011;54731;42.600;23.476;2024-03-08T06:32:23;28.40;;;20.10;;
67941;SDS011;54731;42.600;23.476;2024-03-08T06:34:48;24.57;;;17.60;;
67941;SDS011;54731;42.600;23.476;2024-03-08T06:37:13;16.67;;;10.03;;
67941;SDS011;54731;42.600;23.476;2024-03-08T06:39:39;17.57;;;10.13;;
67941;SDS011;54731;42.600;23.476;2024-03-08T06:42:04;18.50;;;8.90;;
67941;SDS011;54731;42.600;23.476;2024-03-08T06:44:29;15.67;;;7.47;;
67941;SDS011;54731;42.600;23.476;2024-03-08T06:46:55;13.97;;;6.97;;
67941;SDS011;54731;42.600;23.476;2024-03-08T06:49:20;17.80;;;7.33;;
67941;SDS011;54731;42.600;23.476;2024-03-08T06:51:45;8.55;;;5.10;;
67941;SDS011;54731;42.600;23.476;2024-03-08T06:54:10;11.53;;;6.13;;
67941;SDS011;54731;42.600;23.476;2024-03-08T06:56:36;10.27;;;5.07;;
67941;SDS011;54731;42.600;23.476;2024-03-08T06:59:01;10.83;;;5.37;;
67941;SDS011;54731;42.600;23.476;2024-03-08T07:01:26;12.77;;;6.70;;
67941;SDS011;54731;42.600;23.476;2024-03-08T07:03:52;17.30;;;7.57;;
67941;SDS011;54731;42.600;23.476;2024-03-08T07:06:17;9.43;;;4.93;;
67941;SDS011;54731;42.600;23.476;2024-03-08T07:08:44;9.32;;;5.25;;
67941;SDS011;54731;42.600;23.476;2024-03-08T07:11:09;8.30;;;5.00;;
67941;SDS011;54731;42.600;23.476;2024-03-08T07:13:35;13.13;;;6.00;;
67941;SDS011;54731;42.600;23.476;2024-03-08T07:16:00;13.80;;;5.73;;
67941;SDS011;54731;42.600;23.476;2024-03-08T07:18:25;17.63;;;7.60;;
67941;SDS011;54731;42.600;23.476;2024-03-08T07:20:50;16.17;;;7.30;;
67941;SDS011;54731;42.600;23.476;2024-03-08T07:23:16;11.73;;;5.93;;
67941;SDS011;54731;42.600;23.476;2024-03-08T07:25:41;7.87;;;3.80;;
67941;SDS011;54731;42.600;23.476;2024-03-08T07:28:06;7.60;;;4.03;;
67941;SDS011;54731;42.600;23.476;2024-03-08T07:30:32;7.60;;;4.53;;
67941;SDS011;54731;42.600;23.476;2024-03-08T07:32:57;14.80;;;6.87;;
67941;SDS011;54731;42.600;23.476;2024-03-08T07:35:22;10.10;;;5.20;;
67941;SDS011;54731;42.600;23.476;2024-03-08T07:37:47;6.13;;;4.10;;
67941;SDS011;54731;42.600;23.476;2024-03-08T07:40:13;7.17;;;4.57;;
67941;SDS011;54731;42.600;23.476;2024-03-08T07:42:38;7.22;;;4.20;;
67941;SDS011;54731;42.600;23.476;2024-03-08T07:45:04;7.95;;;3.95;;
67941;SDS011;54731;42.600;23.476;2024-03-08T07:47:29;7.97;;;3.80;;
67941;SDS011;54731;42.600;23.476;2024-03-08T07:49:55;4.77;;;2.93;;
67941;SDS011;54731;42.600;23.476;2024-03-08T07:52:20;5.57;;;3.40;;
67941;SDS011;54731;42.600;23.476;2024-03-08T07:54:45;5.55;;;3.30;;
67941;SDS011;54731;42.600;23.476;2024-03-08T07:57:11;5.20;;;2.77;;
67941;SDS011;54731;42.600;23.476;2024-03-08T07:59:36;5.47;;;3.27;;
67941;SDS011;54731;42.600;23.476;2024-03-08T08:02:01;6.77;;;4.40;;
67941;SDS011;54731;42.600;23.476;2024-03-08T08:04:26;6.97;;;3.50;;
67941;SDS011;54731;42.600;23.476;2024-03-08T08:06:52;5.53;;;3.20;;
67941;SDS011;54731;42.600;23.476;2024-03-08T08:09:17;4.83;;;3.20;;
67941;SDS011;54731;42.600;23.476;2024-03-08T08:11:42;5.57;;;3.67;;
67941;SDS011;54731;42.600;23.476;2024-03-08T08:14:08;8.13;;;2.92;;
67941;SDS011;54731;42.600;23.476;2024-03-08T08:16:33;4.45;;;2.80;;
67941;SDS011;54731;42.600;23.476;2024-03-08T08:18:59;5.47;;;3.33;;
67941;SDS011;54731;42.600;23.476;2024-03-08T08:21:24;5.40;;;3.27;;
67941;SDS011;54731;42.600;23.476;2024-03-08T08:23:49;6.43;;;2.93;;
67941;SDS011;54731;42.600;23.476;2024-03-08T08:26:14;6.43;;;3.80;;
67941;SDS011;54731;42.600;23.476;2024-03-08T08:28:40;6.37;;;3.53;;
67941;SDS011;54731;42.600;23.476;2024-03-08T08:31:05;8.10;;;4.23;;
67941;SDS011;54731;42.600;23.476;2024-03-08T08:33:31;5.75;;;3.13;;
67941;SDS011;54731;42.600;23.476;2024-03-08T08:35:57;6.15;;;3.40;;
67941;SDS011;54731;42.600;23.476;2024-03-08T08:38:23;5.30;;;3.13;;
67941;SDS011;54731;42.600;23.476;2024-03-08T08:40:48;5.77;;;3.23;;
67941;SDS011;54731;42.600;23.476;2024-03-08T08:43:13;5.73;;;3.37;;
67941;SDS011;54731;42.600;23.476;2024-03-08T08:45:39;8.00;;;4.20;;
67941;SDS011;54731;42.600;23.476;2024-03-08T08:48:04;9.15;;;4.57;;
67941;SDS011;54731;42.600;23.476;2024-03-08T08:50:30;19.40;;;7.78;;
67941;SDS011;54731;42.600;23.476;2024-03-08T08:52:56;8.17;;;4.30;;
67941;SDS011;54731;42.600;23.476;2024-03-08T08:55:21;6.13;;;3.80;;
67941;SDS011;54731;42.600;23.476;2024-03-08T08:57:47;7.18;;;3.92;;
67941;SDS011;54731;42.600;23.476;2024-03-08T09:00:12;5.20;;;3.40;;
67941;SDS011;54731;42.600;23.476;2024-03-08T09:02:38;4.88;;;2.80;;
67941;SDS011;54731;42.600;23.476;2024-03-08T09:05:03;4.83;;;2.97;;
67941;SDS011;54731;42.600;23.476;2024-03-08T09:07:29;6.03;;;2.90;;
67941;SDS011;54731;42.600;23.476;2024-03-08T09:09:55;4.78;;;2.67;;
67941;SDS011;54731;42.600;23.476;2024-03-08T09:12:20;5.47;;;2.17;;
67941;SDS011;54731;42.600;23.476;2024-03-08T09:14:45;2.77;;;1.17;;
67941;SDS011;54731;42.600;23.476;2024-03-08T09:17:10;2.83;;;1.70;;
67941;SDS011;54731;42.600;23.476;2024-03-08T09:19:36;3.33;;;1.67;;
67941;SDS011;54731;42.600;23.476;2024-03-08T09:22:01;2.53;;;1.50;;
67941;SDS011;54731;42.600;23.476;2024-03-08T09:24:26;3.97;;;2.47;;
67941;SDS011;54731;42.600;23.476;2024-03-08T09:26:52;5.50;;;2.42;;
67941;SDS011;54731;42.600;23.476;2024-03-08T09:29:17;3.60;;;1.70;;
67941;SDS011;54731;42.600;23.476;2024-03-08T09:31:42;5.13;;;1.73;;
67941;SDS011;54731;42.600;23.476;2024-03-08T09:34:08;2.33;;;1.53;;
67941;SDS011;54731;42.600;23.476;2024-03-08T09:36:33;7.03;;;1.70;;
67941;SDS011;54731;42.600;23.476;2024-03-08T09:38:59;6.22;;;1.95;;
67941;SDS011;54731;42.600;23.476;2024-03-08T09:41:24;3.08;;;2.00;;
67941;SDS011;54731;42.600;23.476;2024-03-08T09:43:49;3.87;;;2.23;;
67941;SDS011;54731;42.600;23.476;2024-03-08T09:46:15;6.00;;;1.90;;
67941;SDS011;54731;42.600;23.476;2024-03-08T09:48:42;3.95;;;2.25;;
67941;SDS011;54731;42.600;23.476;2024-03-08T09:51:07;7.43;;;2.00;;
67941;SDS011;54731;42.600;23.476;2024-03-08T09:53:33;3.15;;;1.85;;
67941;SDS011;54731;42.600;23.476;2024-03-08T09:55:58;2.07;;;1.50;;
67941;SDS011;54731;42.600;23.476;2024-03-08T09:58:24;3.80;;;1.80;;
67941;SDS011;54731;42.600;23.476;2024-03-08T10:00:49;3.00;;;1.37;;
67941;SDS011;54731;42.600;23.476;2024-03-08T10:03:14;4.03;;;1.93;;
67941;SDS011;54731;42.600;23.476;2024-03-08T10:05:40;4.05;;;1.73;;
67941;SDS011;54731;42.600;23.476;2024-03-08T10:08:06;4.93;;;2.00;;
67941;SDS011;54731;42.600;23.476;2024-03-08T10:10:34;3.00;;;1.60;;
67941;SDS011;54731;42.600;23.476;2024-03-08T10:13:00;4.77;;;2.00;;
67941;SDS011;54731;42.600;23.476;2024-03-08T10:15:28;5.07;;;2.22;;
67941;SDS011;54731;42.600;23.476;2024-03-08T10:17:53;3.50;;;2.07;;
67941;SDS011;54731;42.600;23.476;2024-03-08T10:20:20;3.70;;;2.17;;
67941;SDS011;54731;42.600;23.476;2024-03-08T10:22:46;3.27;;;1.80;;
67941;SDS011;54731;42.600;23.476;2024-03-08T10:25:11;6.03;;;2.80;;
67941;SDS011;54731;42.600;23.476;2024-03-08T10:27:40;6.50;;;2.23;;
67941;SDS011;54731;42.600;23.476;2024-03-08T10:30:06;4.05;;;2.00;;
67941;SDS011;54731;42.600;23.476;2024-03-08T10:32:35;3.75;;;2.13;;
67941;SDS011;54731;42.600;23.476;2024-03-08T10:35:00;3.23;;;1.77;;
67941;SDS011;54731;42.600;23.476;2024-03-08T10:37:25;4.30;;;2.57;;
67941;SDS011;54731;42.600;23.476;2024-03-08T10:39:57;3.55;;;2.20;;
67941;SDS011;54731;42.600;23.476;2024-03-08T10:42:29;5.53;;;2.43;;
67941;SDS011;54731;42.600;23.476;2024-03-08T10:45:04;3.63;;;1.65;;
67941;SDS011;54731;42.600;23.476;2024-03-08T10:47:32;5.38;;;2.80;;
67941;SDS011;54731;42.600;23.476;2024-03-08T10:50:39;6.22;;;2.65;;
67941;SDS011;54731;42.600;23.476;2024-03-08T10:52:57;6.15;;;2.42;;
67941;SDS011;54731;42.600;23.476;2024-03-08T10:55:23;3.97;;;2.00;;
67941;SDS011;54731;42.600;23.476;2024-03-08T10:57:50;2.90;;;1.75;;
67941;SDS011;54731;42.600;23.476;2024-03-08T11:00:15;6.17;;;3.13;;
67941;SDS011;54731;42.600;23.476;2024-03-08T11:02:44;5.47;;;2.30;;
67941;SDS011;54731;42.600;23.476;2024-03-08T11:05:10;4.33;;;2.00;;
67941;SDS011;54731;42.600;23.476;2024-03-08T11:07:42;13.38;;;3.78;;
67941;SDS011;54731;42.600;23.476;2024-03-08T11:10:17;3.00;;;1.90;;
67941;SDS011;54731;42.600;23.476;2024-03-08T11:12:44;4.82;;;2.58;;
67941;SDS011;54731;42.600;23.476;2024-03-08T11:15:11;2.70;;;1.43;;
67941;SDS011;54731;42.600;23.476;2024-03-08T11:20:02;18.80;;;14.87;;
67941;SDS011;54731;42.600;23.476;2024-03-08T11:22:28;3.90;;;2.13;;
67941;SDS011;54731;42.600;23.476;2024-03-08T11:24:58;2.15;;;1.50;;
67941;SDS011;54731;42.600;23.476;2024-03-08T11:27:33;2.92;;;1.77;;
67941;SDS011;54731;42.600;23.476;2024-03-08T11:30:01;5.97;;;2.13;;
67941;SDS011;54731;42.600;23.476;2024-03-08T11:32:30;3.90;;;1.63;;
67941;SDS011;54731;42.600;23.476;2024-03-08T11:34:56;2.47;;;1.40;;
67941;SDS011;54731;42.600;23.476;2024-03-08T11:37:21;3.13;;;1.50;;
67941;SDS011;54731;42.600;23.476;2024-03-08T11:39:47;6.13;;;2.47;;
67941;SDS011;54731;42.600;23.476;2024-03-08T11:42:14;6.22;;;2.47;;
67941;SDS011;54731;42.600;23.476;2024-03-08T11:44:39;2.58;;;1.40;;
67941;SDS011;54731;42.600;23.476;2024-03-08T11:47:08;3.27;;;1.70;;
67941;SDS011;54731;42.600;23.476;2024-03-08T11:49:34;5.35;;;2.00;;
67941;SDS011;54731;42.600;23.476;2024-03-08T11:51:59;3.37;;;1.77;;
67941;SDS011;54731;42.600;23.476;2024-03-08T11:54:25;3.47;;;1.47;;
67941;SDS011;54731;42.600;23.476;2024-03-08T11:56:51;2.40;;;1.40;;
67941;SDS011;54731;42.600;23.476;2024-03-08T11:59:17;2.03;;;1.40;;
67941;SDS011;54731;42.600;23.476;2024-03-08T12:01:42;7.63;;;3.50;;
67941;SDS011;54731;42.600;23.476;2024-03-08T12:04:10;3.57;;;1.50;;
67941;SDS011;54731;42.600;23.476;2024-03-08T12:06:37;2.17;;;1.38;;
67941;SDS011;54731;42.600;23.476;2024-03-08T12:09:03;4.88;;;1.88;;
67941;SDS011;54731;42.600;23.476;2024-03-08T12:11:29;2.40;;;1.20;;
67941;SDS011;54731;42.600;23.476;2024-03-08T12:13:54;2.53;;;1.40;;
67941;SDS011;54731;42.600;23.476;2024-03-08T12:16:20;3.80;;;1.10;;
67941;SDS011;54731;42.600;23.476;2024-03-08T12:18:45;2.28;;;1.30;;
67941;SDS011;54731;42.600;23.476;2024-03-08T12:21:11;1.87;;;1.20;;
67941;SDS011;54731;42.600;23.476;2024-03-08T12:23:38;1.58;;;0.90;;
67941;SDS011;54731;42.600;23.476;2024-03-08T12:28:35;1.88;;;0.85;;
67941;SDS011;54731;42.600;23.476;2024-03-08T12:31:00;2.37;;;1.03;;
67941;SDS011;54731;42.600;23.476;2024-03-08T12:33:26;2.53;;;1.17;;
67941;SDS011;54731;42.600;23.476;2024-03-08T12:35:52;3.37;;;1.20;;
67941;SDS011;54731;42.600;23.476;2024-03-08T12:38:18;3.05;;;1.35;;
67941;SDS011;54731;42.600;23.476;2024-03-08T12:40:45;3.80;;;2.33;;
67941;SDS011;54731;42.600;23.476;2024-03-08T12:43:10;2.33;;;1.23;;
67941;SDS011;54731;42.600;23.476;2024-03-08T12:45:35;1.48;;;0.90;;
67941;SDS011;54731;42.600;23.476;2024-03-08T12:48:00;1.33;;;1.00;;
67941;SDS011;54731;42.600;23.476;2024-03-08T12:50:26;2.40;;;1.20;;
67941;SDS011;54731;42.600;23.476;2024-03-08T12:52:51;1.70;;;1.10;;
67941;SDS011;54731;42.600;23.476;2024-03-08T12:55:16;5.83;;;2.40;;
67941;SDS011;54731;42.600;23.476;2024-03-08T12:57:42;5.57;;;2.07;;
67941;SDS011;54731;42.600;23.476;2024-03-08T13:00:08;2.67;;;1.10;;
67941;SDS011;54731;42.600;23.476;2024-03-08T13:02:33;4.20;;;1.80;;
67941;SDS011;54731;42.600;23.476;2024-03-08T13:04:59;5.27;;;1.90;;
67941;SDS011;54731;42.600;23.476;2024-03-08T13:07:24;3.92;;;1.85;;
67941;SDS011;54731;42.600;23.476;2024-03-08T13:09:50;3.60;;;2.07;;
67941;SDS011;54731;42.600;23.476;2024-03-08T13:12:15;4.63;;;1.90;;
67941;SDS011;54731;42.600;23.476;2024-03-08T13:14:41;2.47;;;1.63;;
67941;SDS011;54731;42.600;23.476;2024-03-08T13:17:06;6.95;;;3.50;;
67941;SDS011;54731;42.600;23.476;2024-03-08T13:19:31;4.53;;;1.80;;
67941;SDS011;54731;42.600;23.476;2024-03-08T13:21:56;4.87;;;2.00;;
67941;SDS011;54731;42.600;23.476;2024-03-08T13:24:22;5.30;;;2.10;;
67941;SDS011;54731;42.600;23.476;2024-03-08T13:26:47;3.80;;;1.60;;
67941;SDS011;54731;42.600;23.476;2024-03-08T13:29:13;6.67;;;2.60;;
67941;SDS011;54731;42.600;23.476;2024-03-08T13:31:38;3.17;;;1.40;;
67941;SDS011;54731;42.600;23.476;2024-03-08T13:34:03;3.07;;;1.70;;
67941;SDS011;54731;42.600;23.476;2024-03-08T13:36:28;4.53;;;1.23;;
67941;SDS011;54731;42.600;23.476;2024-03-08T13:38:54;3.25;;;1.58;;
67941;SDS011;54731;42.600;23.476;2024-03-08T13:41:19;4.40;;;2.10;;
67941;SDS011;54731;42.600;23.476;2024-03-08T13:43:45;4.60;;;2.97;;
67941;SDS011;54731;42.600;23.476;2024-03-08T13:46:11;5.88;;;1.80;;
67941;SDS011;54731;42.600;23.476;2024-03-08T13:48:37;5.73;;;1.60;;
67941;SDS011;54731;42.600;23.476;2024-03-08T13:51:02;2.50;;;1.30;;
67941;SDS011;54731;42.600;23.476;2024-03-08T13:53:28;4.10;;;1.67;;
67941;SDS011;54731;42.600;23.476;2024-03-08T13:55:53;3.30;;;1.63;;
67941;SDS011;54731;42.600;23.476;2024-03-08T13:58:18;6.82;;;2.47;;
67941;SDS011;54731;42.600;23.476;2024-03-08T14:00:44;4.90;;;2.00;;
67941;SDS011;54731;42.600;23.476;2024-03-08T14:03:09;5.03;;;2.00;;
67941;SDS011;54731;42.600;23.476;2024-03-08T14:05:35;3.30;;;1.33;;
67941;SDS011;54731;42.600;23.476;2024-03-08T14:08:01;2.15;;;1.25;;
67941;SDS011;54731;42.600;23.476;2024-03-08T14:10:26;3.80;;;2.20;;
67941;SDS011;54731;42.600;23.476;2024-03-08T14:12:52;10.83;;;5.17;;
67941;SDS011;54731;42.600;23.476;2024-03-08T14:15:17;12.65;;;5.78;;
67941;SDS011;54731;42.600;23.476;2024-03-08T14:17:43;4.23;;;1.87;;
67941;SDS011;54731;42.600;23.476;2024-03-08T14:20:08;2.47;;;1.30;;
67941;SDS011;54731;42.600;23.476;2024-03-08T14:22:34;4.27;;;1.20;;
67941;SDS011;54731;42.600;23.476;2024-03-08T14:24:59;2.65;;;1.60;;